< < Back
Terminal Aerodrome Forecast


Current Version              Previous Versions:   1  2  3  4  5  6  7  8  9  

Terminal Aerodrome Forecast

072
FTUS44 KMOB 291100 RRA
TAFMOB
TAF
KMOB 291148Z 2912/3012 00000KT P6SM FEW100 BKN250
     FM291500 15008KT P6SM VCSH SCT040 BKN150 BKN250
     FM291800 14007KT P6SM VCTS SCT030CB BKN120
      TEMPO 2918/2922 4SM TSRA BKN025CB
     FM300100 14006KT P6SM SCT030=



Latest METAR

802
SAUS80 KWBC 291800 RRB
MTRMOB
METAR KMOB 291756Z 12010KT 10SM FEW034 SCT045 BKN200 31/23 A3001 RMK AO2
SLP160 CB DSNT SE-SW T03110233 10328 20222 56005


USA.gov is the U.S. government's official web portal to all federal, state and local government web resources and services.